sensor_id;sensor_type;location;lat;lon;timestamp;P1;durP1;ratioP1;P2;durP2;ratioP2
74375;SDS011;62812;55.188;61.302;2023-03-14T00:00:57;10.25;;;3.90;;
74375;SDS011;62812;55.188;61.302;2023-03-14T00:03:23;8.63;;;4.00;;
74375;SDS011;62812;55.188;61.302;2023-03-14T00:05:50;8.73;;;3.40;;
74375;SDS011;62812;55.188;61.302;2023-03-14T00:08:16;8.43;;;3.90;;
74375;SDS011;62812;55.188;61.302;2023-03-14T00:10:45;7.60;;;3.53;;
74375;SDS011;62812;55.188;61.302;2023-03-14T00:13:11;9.02;;;3.80;;
74375;SDS011;62812;55.188;61.302;2023-03-14T00:15:37;9.10;;;3.63;;
74375;SDS011;62812;55.188;61.302;2023-03-14T00:18:04;7.35;;;3.15;;
74375;SDS011;62812;55.188;61.302;2023-03-14T00:20:30;7.65;;;3.28;;
74375;SDS011;62812;55.188;61.302;2023-03-14T00:22:56;7.90;;;3.60;;
74375;SDS011;62812;55.188;61.302;2023-03-14T00:25:23;9.75;;;4.05;;
74375;SDS011;62812;55.188;61.302;2023-03-14T00:27:51;8.07;;;3.17;;
74375;SDS011;62812;55.188;61.302;2023-03-14T00:30:17;8.65;;;3.42;;
74375;SDS011;62812;55.188;61.302;2023-03-14T00:32:44;9.85;;;3.33;;
74375;SDS011;62812;55.188;61.302;2023-03-14T00:35:11;11.48;;;3.60;;
74375;SDS011;62812;55.188;61.302;2023-03-14T00:37:37;8.65;;;3.40;;
74375;SDS011;62812;55.188;61.302;2023-03-14T00:40:04;7.18;;;3.05;;
74375;SDS011;62812;55.188;61.302;2023-03-14T00:42:32;8.18;;;3.58;;
74375;SDS011;62812;55.188;61.302;2023-03-14T00:45:00;9.10;;;3.60;;
74375;SDS011;62812;55.188;61.302;2023-03-14T00:47:26;7.32;;;2.85;;
74375;SDS011;62812;55.188;61.302;2023-03-14T00:49:53;8.20;;;3.38;;
74375;SDS011;62812;55.188;61.302;2023-03-14T00:52:20;8.90;;;3.67;;
74375;SDS011;62812;55.188;61.302;2023-03-14T00:54:46;9.45;;;3.47;;
74375;SDS011;62812;55.188;61.302;2023-03-14T00:57:13;8.23;;;3.38;;
74375;SDS011;62812;55.188;61.302;2023-03-14T00:59:40;9.40;;;3.72;;
74375;SDS011;62812;55.188;61.302;2023-03-14T01:02:08;7.07;;;2.83;;
74375;SDS011;62812;55.188;61.302;2023-03-14T01:04:34;7.70;;;2.92;;
74375;SDS011;62812;55.188;61.302;2023-03-14T01:07:03;9.38;;;2.88;;
74375;SDS011;62812;55.188;61.302;2023-03-14T01:09:30;6.60;;;3.08;;
74375;SDS011;62812;55.188;61.302;2023-03-14T01:11:56;8.05;;;3.45;;
74375;SDS011;62812;55.188;61.302;2023-03-14T01:14:23;9.20;;;3.47;;
74375;SDS011;62812;55.188;61.302;2023-03-14T01:16:52;8.13;;;3.20;;
74375;SDS011;62812;55.188;61.302;2023-03-14T01:19:21;8.13;;;3.47;;
74375;SDS011;62812;55.188;61.302;2023-03-14T01:21:48;8.25;;;2.80;;
74375;SDS011;62812;55.188;61.302;2023-03-14T01:24:14;6.65;;;2.90;;
74375;SDS011;62812;55.188;61.302;2023-03-14T01:26:41;9.27;;;3.05;;
74375;SDS011;62812;55.188;61.302;2023-03-14T01:29:08;7.03;;;2.95;;
74375;SDS011;62812;55.188;61.302;2023-03-14T01:31:35;6.38;;;2.50;;
74375;SDS011;62812;55.188;61.302;2023-03-14T01:34:02;5.93;;;2.65;;
74375;SDS011;62812;55.188;61.302;2023-03-14T01:36:30;7.00;;;2.88;;
74375;SDS011;62812;55.188;61.302;2023-03-14T01:38:57;7.13;;;2.80;;
74375;SDS011;62812;55.188;61.302;2023-03-14T01:41:24;6.53;;;2.80;;
74375;SDS011;62812;55.188;61.302;2023-03-14T01:43:52;6.50;;;2.97;;
74375;SDS011;62812;55.188;61.302;2023-03-14T01:46:20;6.05;;;2.53;;
74375;SDS011;62812;55.188;61.302;2023-03-14T01:48:55;7.93;;;2.88;;
74375;SDS011;62812;55.188;61.302;2023-03-14T01:51:27;6.90;;;2.95;;
74375;SDS011;62812;55.188;61.302;2023-03-14T01:54:00;6.55;;;2.78;;
74375;SDS011;62812;55.188;61.302;2023-03-14T01:56:32;6.15;;;2.78;;
74375;SDS011;62812;55.188;61.302;2023-03-14T01:59:00;6.72;;;2.80;;
74375;SDS011;62812;55.188;61.302;2023-03-14T02:01:30;6.93;;;2.72;;
74375;SDS011;62812;55.188;61.302;2023-03-14T02:03:58;5.75;;;2.63;;
74375;SDS011;62812;55.188;61.302;2023-03-14T02:06:29;6.55;;;3.10;;
74375;SDS011;62812;55.188;61.302;2023-03-14T02:09:08;6.57;;;2.25;;
74375;SDS011;62812;55.188;61.302;2023-03-14T02:11:45;6.65;;;3.00;;
74375;SDS011;62812;55.188;61.302;2023-03-14T02:14:14;6.07;;;2.42;;
74375;SDS011;62812;55.188;61.302;2023-03-14T02:16:48;5.68;;;2.50;;
74375;SDS011;62812;55.188;61.302;2023-03-14T02:19:15;7.00;;;3.30;;
74375;SDS011;62812;55.188;61.302;2023-03-14T02:21:49;7.85;;;2.70;;
74375;SDS011;62812;55.188;61.302;2023-03-14T02:24:24;7.78;;;3.03;;
74375;SDS011;62812;55.188;61.302;2023-03-14T02:27:07;7.30;;;3.10;;
74375;SDS011;62812;55.188;61.302;2023-03-14T02:29:39;8.38;;;2.60;;
74375;SDS011;62812;55.188;61.302;2023-03-14T02:32:12;5.47;;;2.33;;
74375;SDS011;62812;55.188;61.302;2023-03-14T02:34:40;6.35;;;2.70;;
74375;SDS011;62812;55.188;61.302;2023-03-14T02:39:38;5.55;;;2.45;;
74375;SDS011;62812;55.188;61.302;2023-03-14T02:42:09;5.65;;;2.60;;
74375;SDS011;62812;55.188;61.302;2023-03-14T02:44:35;7.90;;;3.00;;
74375;SDS011;62812;55.188;61.302;2023-03-14T02:47:11;8.55;;;2.83;;
74375;SDS011;62812;55.188;61.302;2023-03-14T02:49:38;6.95;;;2.70;;
74375;SDS011;62812;55.188;61.302;2023-03-14T02:52:05;6.63;;;2.50;;
74375;SDS011;62812;55.188;61.302;2023-03-14T02:54:32;6.20;;;2.58;;
74375;SDS011;62812;55.188;61.302;2023-03-14T02:56:58;6.03;;;2.75;;
74375;SDS011;62812;55.188;61.302;2023-03-14T02:59:26;6.43;;;2.80;;
74375;SDS011;62812;55.188;61.302;2023-03-14T03:01:53;6.63;;;3.15;;
74375;SDS011;62812;55.188;61.302;2023-03-14T03:04:20;7.63;;;2.60;;
74375;SDS011;62812;55.188;61.302;2023-03-14T03:06:46;5.10;;;2.08;;
74375;SDS011;62812;55.188;61.302;2023-03-14T03:09:13;5.13;;;2.05;;
74375;SDS011;62812;55.188;61.302;2023-03-14T03:11:40;5.50;;;2.30;;
74375;SDS011;62812;55.188;61.302;2023-03-14T03:14:06;7.28;;;2.97;;
74375;SDS011;62812;55.188;61.302;2023-03-14T03:16:34;6.68;;;2.42;;
74375;SDS011;62812;55.188;61.302;2023-03-14T03:19:04;6.00;;;2.20;;
74375;SDS011;62812;55.188;61.302;2023-03-14T03:21:30;4.55;;;1.83;;
74375;SDS011;62812;55.188;61.302;2023-03-14T03:23:57;10.02;;;3.33;;
74375;SDS011;62812;55.188;61.302;2023-03-14T03:26:24;4.85;;;1.70;;
74375;SDS011;62812;55.188;61.302;2023-03-14T03:28:50;4.35;;;1.50;;
74375;SDS011;62812;55.188;61.302;2023-03-14T03:31:19;4.93;;;1.52;;
74375;SDS011;62812;55.188;61.302;2023-03-14T03:33:47;5.32;;;1.77;;
74375;SDS011;62812;55.188;61.302;2023-03-14T03:36:14;5.95;;;1.90;;
74375;SDS011;62812;55.188;61.302;2023-03-14T03:38:40;6.05;;;2.67;;
74375;SDS011;62812;55.188;61.302;2023-03-14T03:41:07;5.32;;;1.80;;
74375;SDS011;62812;55.188;61.302;2023-03-14T03:43:34;6.32;;;2.35;;
74375;SDS011;62812;55.188;61.302;2023-03-14T03:46:02;5.97;;;2.03;;
74375;SDS011;62812;55.188;61.302;2023-03-14T03:48:30;4.75;;;1.80;;
74375;SDS011;62812;55.188;61.302;2023-03-14T03:50:58;7.00;;;2.35;;
74375;SDS011;62812;55.188;61.302;2023-03-14T03:53:27;6.35;;;2.10;;
74375;SDS011;62812;55.188;61.302;2023-03-14T03:55:54;6.88;;;2.30;;
74375;SDS011;62812;55.188;61.302;2023-03-14T03:58:21;4.80;;;2.03;;
74375;SDS011;62812;55.188;61.302;2023-03-14T04:00:47;6.05;;;1.67;;
74375;SDS011;62812;55.188;61.302;2023-03-14T04:03:14;5.28;;;1.90;;
74375;SDS011;62812;55.188;61.302;2023-03-14T04:05:41;9.20;;;3.80;;
74375;SDS011;62812;55.188;61.302;2023-03-14T04:08:10;4.35;;;1.60;;
74375;SDS011;62812;55.188;61.302;2023-03-14T04:10:37;6.00;;;2.55;;
74375;SDS011;62812;55.188;61.302;2023-03-14T04:13:04;4.32;;;1.48;;
74375;SDS011;62812;55.188;61.302;2023-03-14T04:15:30;8.60;;;4.32;;
74375;SDS011;62812;55.188;61.302;2023-03-14T04:17:57;6.03;;;2.30;;
74375;SDS011;62812;55.188;61.302;2023-03-14T04:20:24;4.18;;;1.73;;
74375;SDS011;62812;55.188;61.302;2023-03-14T04:22:51;7.25;;;2.30;;
74375;SDS011;62812;55.188;61.302;2023-03-14T04:25:19;4.30;;;1.60;;
74375;SDS011;62812;55.188;61.302;2023-03-14T04:27:46;5.15;;;1.95;;
74375;SDS011;62812;55.188;61.302;2023-03-14T04:30:14;4.35;;;1.50;;
74375;SDS011;62812;55.188;61.302;2023-03-14T04:32:40;4.40;;;1.30;;
74375;SDS011;62812;55.188;61.302;2023-03-14T04:35:07;4.50;;;1.38;;
74375;SDS011;62812;55.188;61.302;2023-03-14T04:37:34;2.92;;;1.08;;
74375;SDS011;62812;55.188;61.302;2023-03-14T04:40:01;3.15;;;1.13;;
74375;SDS011;62812;55.188;61.302;2023-03-14T04:42:31;3.88;;;1.50;;
74375;SDS011;62812;55.188;61.302;2023-03-14T04:44:57;3.38;;;1.30;;
74375;SDS011;62812;55.188;61.302;2023-03-14T04:47:24;4.40;;;1.65;;
74375;SDS011;62812;55.188;61.302;2023-03-14T04:49:51;3.45;;;1.40;;
74375;SDS011;62812;55.188;61.302;2023-03-14T04:52:17;3.55;;;1.42;;
74375;SDS011;62812;55.188;61.302;2023-03-14T04:54:44;2.70;;;0.93;;
74375;SDS011;62812;55.188;61.302;2023-03-14T04:57:11;3.00;;;0.90;;
74375;SDS011;62812;55.188;61.302;2023-03-14T04:59:39;3.17;;;1.02;;
74375;SDS011;62812;55.188;61.302;2023-03-14T05:02:05;3.25;;;1.00;;
74375;SDS011;62812;55.188;61.302;2023-03-14T05:04:33;3.78;;;1.08;;
74375;SDS011;62812;55.188;61.302;2023-03-14T05:06:59;2.67;;;0.90;;
74375;SDS011;62812;55.188;61.302;2023-03-14T05:09:28;2.42;;;0.80;;
74375;SDS011;62812;55.188;61.302;2023-03-14T05:11:55;2.30;;;0.63;;
74375;SDS011;62812;55.188;61.302;2023-03-14T05:14:21;2.15;;;0.63;;
74375;SDS011;62812;55.188;61.302;2023-03-14T05:16:50;1.27;;;0.43;;
74375;SDS011;62812;55.188;61.302;2023-03-14T05:19:17;1.52;;;0.50;;
74375;SDS011;62812;55.188;61.302;2023-03-14T05:21:43;1.65;;;0.30;;
74375;SDS011;62812;55.188;61.302;2023-03-14T05:24:10;1.55;;;0.50;;
74375;SDS011;62812;55.188;61.302;2023-03-14T05:26:37;1.27;;;0.52;;
74375;SDS011;62812;55.188;61.302;2023-03-14T05:29:03;1.95;;;0.50;;
74375;SDS011;62812;55.188;61.302;2023-03-14T05:31:30;1.85;;;0.35;;
74375;SDS011;62812;55.188;61.302;2023-03-14T05:33:58;1.92;;;0.50;;
74375;SDS011;62812;55.188;61.302;2023-03-14T05:36:24;0.95;;;0.30;;
74375;SDS011;62812;55.188;61.302;2023-03-14T05:38:51;1.25;;;0.47;;
74375;SDS011;62812;55.188;61.302;2023-03-14T05:41:18;1.70;;;0.65;;
74375;SDS011;62812;55.188;61.302;2023-03-14T05:43:44;1.52;;;0.63;;
74375;SDS011;62812;55.188;61.302;2023-03-14T05:46:11;1.42;;;0.40;;
74375;SDS011;62812;55.188;61.302;2023-03-14T05:48:38;1.35;;;0.40;;
74375;SDS011;62812;55.188;61.302;2023-03-14T05:51:06;1.63;;;0.50;;
74375;SDS011;62812;55.188;61.302;2023-03-14T05:53:32;1.83;;;0.60;;
74375;SDS011;62812;55.188;61.302;2023-03-14T05:55:59;1.92;;;0.70;;
74375;SDS011;62812;55.188;61.302;2023-03-14T05:58:25;2.53;;;0.60;;
74375;SDS011;62812;55.188;61.302;2023-03-14T06:00:51;2.13;;;0.80;;
74375;SDS011;62812;55.188;61.302;2023-03-14T06:03:18;3.63;;;1.02;;
74375;SDS011;62812;55.188;61.302;2023-03-14T06:05:49;1.70;;;0.73;;
74375;SDS011;62812;55.188;61.302;2023-03-14T06:08:18;1.90;;;0.68;;
74375;SDS011;62812;55.188;61.302;2023-03-14T06:10:44;4.78;;;1.20;;
74375;SDS011;62812;55.188;61.302;2023-03-14T06:13:10;4.53;;;1.45;;
74375;SDS011;62812;55.188;61.302;2023-03-14T06:15:37;3.40;;;1.10;;
74375;SDS011;62812;55.188;61.302;2023-03-14T06:18:03;2.35;;;0.80;;
74375;SDS011;62812;55.188;61.302;2023-03-14T06:20:30;2.80;;;0.77;;
74375;SDS011;62812;55.188;61.302;2023-03-14T06:23:01;3.33;;;0.80;;
74375;SDS011;62812;55.188;61.302;2023-03-14T06:25:28;3.05;;;1.13;;
74375;SDS011;62812;55.188;61.302;2023-03-14T06:27:55;2.83;;;1.00;;
74375;SDS011;62812;55.188;61.302;2023-03-14T06:30:21;2.47;;;1.00;;
74375;SDS011;62812;55.188;61.302;2023-03-14T06:32:48;5.35;;;1.25;;
74375;SDS011;62812;55.188;61.302;2023-03-14T06:35:14;2.65;;;0.82;;
74375;SDS011;62812;55.188;61.302;2023-03-14T06:37:40;3.47;;;1.42;;
74375;SDS011;62812;55.188;61.302;2023-03-14T06:40:08;4.60;;;1.15;;
74375;SDS011;62812;55.188;61.302;2023-03-14T06:42:37;3.10;;;1.15;;
74375;SDS011;62812;55.188;61.302;2023-03-14T06:45:04;4.40;;;1.20;;
74375;SDS011;62812;55.188;61.302;2023-03-14T06:47:31;3.35;;;1.00;;
74375;SDS011;62812;55.188;61.302;2023-03-14T06:49:58;3.30;;;1.30;;
74375;SDS011;62812;55.188;61.302;2023-03-14T06:52:24;2.75;;;0.80;;
74375;SDS011;62812;55.188;61.302;2023-03-14T06:54:51;2.50;;;0.90;;
74375;SDS011;62812;55.188;61.302;2023-03-14T06:57:18;2.95;;;1.15;;
74375;SDS011;62812;55.188;61.302;2023-03-14T06:59:46;3.15;;;1.10;;
74375;SDS011;62812;55.188;61.302;2023-03-14T07:02:13;2.63;;;1.10;;
74375;SDS011;62812;55.188;61.302;2023-03-14T07:04:41;3.20;;;1.10;;
74375;SDS011;62812;55.188;61.302;2023-03-14T07:07:08;2.42;;;0.93;;
74375;SDS011;62812;55.188;61.302;2023-03-14T07:09:35;1.92;;;0.88;;
74375;SDS011;62812;55.188;61.302;2023-03-14T07:12:02;2.75;;;1.13;;
74375;SDS011;62812;55.188;61.302;2023-03-14T07:14:30;2.55;;;1.02;;
74375;SDS011;62812;55.188;61.302;2023-03-14T07:16:58;2.63;;;0.90;;
74375;SDS011;62812;55.188;61.302;2023-03-14T07:19:25;3.35;;;1.13;;
74375;SDS011;62812;55.188;61.302;2023-03-14T07:21:53;2.95;;;1.25;;
74375;SDS011;62812;55.188;61.302;2023-03-14T07:24:20;3.78;;;1.30;;
74375;SDS011;62812;55.188;61.302;2023-03-14T07:26:49;4.05;;;1.33;;
74375;SDS011;62812;55.188;61.302;2023-03-14T07:29:16;3.80;;;1.42;;
74375;SDS011;62812;55.188;61.302;2023-03-14T07:31:42;3.30;;;1.30;;
74375;SDS011;62812;55.188;61.302;2023-03-14T07:34:10;3.33;;;1.38;;
74375;SDS011;62812;55.188;61.302;2023-03-14T07:36:37;3.22;;;1.33;;
74375;SDS011;62812;55.188;61.302;2023-03-14T07:39:04;4.18;;;1.58;;
74375;SDS011;62812;55.188;61.302;2023-03-14T07:41:30;4.53;;;1.65;;
74375;SDS011;62812;55.188;61.302;2023-03-14T07:43:57;4.65;;;1.63;;
74375;SDS011;62812;55.188;61.302;2023-03-14T07:46:24;4.07;;;1.58;;
74375;SDS011;62812;55.188;61.302;2023-03-14T07:48:50;5.13;;;1.88;;
74375;SDS011;62812;55.188;61.302;2023-03-14T07:51:18;4.40;;;1.77;;
74375;SDS011;62812;55.188;61.302;2023-03-14T07:53:44;4.28;;;1.85;;
74375;SDS011;62812;55.188;61.302;2023-03-14T07:56:11;5.22;;;1.65;;
74375;SDS011;62812;55.188;61.302;2023-03-14T07:58:38;3.75;;;1.65;;
74375;SDS011;62812;55.188;61.302;2023-03-14T08:01:04;4.60;;;2.10;;
74375;SDS011;62812;55.188;61.302;2023-03-14T08:03:31;5.15;;;1.95;;
74375;SDS011;62812;55.188;61.302;2023-03-14T08:05:58;3.97;;;1.60;;
74375;SDS011;62812;55.188;61.302;2023-03-14T08:08:26;4.10;;;1.92;;
74375;SDS011;62812;55.188;61.302;2023-03-14T08:10:53;3.38;;;1.48;;
74375;SDS011;62812;55.188;61.302;2023-03-14T08:13:19;4.68;;;1.83;;
74375;SDS011;62812;55.188;61.302;2023-03-14T08:15:47;4.05;;;1.73;;
74375;SDS011;62812;55.188;61.302;2023-03-14T08:18:14;4.07;;;1.60;;
74375;SDS011;62812;55.188;61.302;2023-03-14T08:20:41;4.47;;;1.98;;
74375;SDS011;62812;55.188;61.302;2023-03-14T08:23:08;5.25;;;1.70;;
74375;SDS011;62812;55.188;61.302;2023-03-14T08:25:37;3.78;;;1.42;;
74375;SDS011;62812;55.188;61.302;2023-03-14T08:28:04;4.00;;;1.45;;
74375;SDS011;62812;55.188;61.302;2023-03-14T08:30:30;4.30;;;1.33;;
74375;SDS011;62812;55.188;61.302;2023-03-14T08:33:06;3.47;;;1.40;;
74375;SDS011;62812;55.188;61.302;2023-03-14T08:35:37;3.10;;;1.20;;
74375;SDS011;62812;55.188;61.302;2023-03-14T08:38:13;3.10;;;1.30;;
74375;SDS011;62812;55.188;61.302;2023-03-14T08:40:41;2.72;;;1.05;;
74375;SDS011;62812;55.188;61.302;2023-03-14T08:43:08;3.88;;;0.90;;
74375;SDS011;62812;55.188;61.302;2023-03-14T08:45:35;3.50;;;1.13;;
74375;SDS011;62812;55.188;61.302;2023-03-14T08:48:01;2.15;;;0.90;;
74375;SDS011;62812;55.188;61.302;2023-03-14T08:50:28;3.63;;;1.35;;
74375;SDS011;62812;55.188;61.302;2023-03-14T08:52:56;3.08;;;1.10;;
74375;SDS011;62812;55.188;61.302;2023-03-14T08:55:26;3.65;;;1.15;;
74375;SDS011;62812;55.188;61.302;2023-03-14T08:57:57;2.30;;;0.80;;
74375;SDS011;62812;55.188;61.302;2023-03-14T09:00:24;2.28;;;0.80;;
74375;SDS011;62812;55.188;61.302;2023-03-14T09:02:50;3.05;;;1.00;;
74375;SDS011;62812;55.188;61.302;2023-03-14T09:05:17;2.90;;;1.10;;
74375;SDS011;62812;55.188;61.302;2023-03-14T09:07:44;2.55;;;1.00;;
74375;SDS011;62812;55.188;61.302;2023-03-14T09:10:13;2.97;;;1.13;;
74375;SDS011;62812;55.188;61.302;2023-03-14T09:12:39;3.33;;;1.10;;
74375;SDS011;62812;55.188;61.302;2023-03-14T09:15:08;2.45;;;0.85;;
74375;SDS011;62812;55.188;61.302;2023-03-14T09:17:35;3.03;;;0.90;;
74375;SDS011;62812;55.188;61.302;2023-03-14T09:20:02;3.00;;;0.80;;
74375;SDS011;62812;55.188;61.302;2023-03-14T09:22:32;3.38;;;1.00;;
74375;SDS011;62812;55.188;61.302;2023-03-14T09:25:01;3.70;;;1.20;;
74375;SDS011;62812;55.188;61.302;2023-03-14T09:27:28;1.77;;;0.70;;
74375;SDS011;62812;55.188;61.302;2023-03-14T09:29:54;2.90;;;0.90;;
74375;SDS011;62812;55.188;61.302;2023-03-14T09:32:22;3.08;;;1.00;;
74375;SDS011;62812;55.188;61.302;2023-03-14T09:34:49;2.55;;;0.90;;
74375;SDS011;62812;55.188;61.302;2023-03-14T09:37:16;2.42;;;0.95;;
74375;SDS011;62812;55.188;61.302;2023-03-14T09:39:43;3.25;;;0.98;;
74375;SDS011;62812;55.188;61.302;2023-03-14T09:42:12;4.97;;;1.10;;
74375;SDS011;62812;55.188;61.302;2023-03-14T09:44:45;3.13;;;1.02;;
74375;SDS011;62812;55.188;61.302;2023-03-14T09:47:19;2.63;;;1.00;;
74375;SDS011;62812;55.188;61.302;2023-03-14T09:49:48;2.28;;;0.90;;
74375;SDS011;62812;55.188;61.302;2023-03-14T09:52:15;2.42;;;0.93;;
74375;SDS011;62812;55.188;61.302;2023-03-14T09:54:46;2.15;;;0.90;;
74375;SDS011;62812;55.188;61.302;2023-03-14T09:57:17;2.25;;;0.77;;
74375;SDS011;62812;55.188;61.302;2023-03-14T09:59:45;2.10;;;0.75;;
74375;SDS011;62812;55.188;61.302;2023-03-14T10:02:14;3.67;;;1.10;;
74375;SDS011;62812;55.188;61.302;2023-03-14T10:04:43;2.35;;;0.80;;
74375;SDS011;62812;55.188;61.302;2023-03-14T10:07:14;5.35;;;0.95;;
74375;SDS011;62812;55.188;61.302;2023-03-14T10:09:43;2.97;;;0.80;;
74375;SDS011;62812;55.188;61.302;2023-03-14T10:12:10;1.73;;;0.60;;
74375;SDS011;62812;55.188;61.302;2023-03-14T10:14:38;1.30;;;0.40;;
74375;SDS011;62812;55.188;61.302;2023-03-14T10:17:12;2.17;;;0.70;;
74375;SDS011;62812;55.188;61.302;2023-03-14T10:19:45;1.98;;;0.60;;
74375;SDS011;62812;55.188;61.302;2023-03-14T10:22:19;2.20;;;0.80;;
74375;SDS011;62812;55.188;61.302;2023-03-14T10:24:50;2.13;;;0.57;;
74375;SDS011;62812;55.188;61.302;2023-03-14T10:27:19;3.45;;;1.00;;
74375;SDS011;62812;55.188;61.302;2023-03-14T10:29:56;2.47;;;0.70;;
74375;SDS011;62812;55.188;61.302;2023-03-14T10:32:28;2.38;;;0.68;;
74375;SDS011;62812;55.188;61.302;2023-03-14T10:37:50;1.40;;;0.40;;
74375;SDS011;62812;55.188;61.302;2023-03-14T10:40:19;2.70;;;0.70;;
74375;SDS011;62812;55.188;61.302;2023-03-14T10:42:50;1.92;;;0.60;;
74375;SDS011;62812;55.188;61.302;2023-03-14T10:45:27;2.55;;;0.60;;
74375;SDS011;62812;55.188;61.302;2023-03-14T10:47:59;2.55;;;0.50;;
74375;SDS011;62812;55.188;61.302;2023-03-14T10:50:36;1.50;;;0.52;;
74375;SDS011;62812;55.188;61.302;2023-03-14T10:53:34;3.47;;;0.55;;
74375;SDS011;62812;55.188;61.302;2023-03-14T10:56:06;2.53;;;0.52;;
74375;SDS011;62812;55.188;61.302;2023-03-14T11:01:17;1.73;;;0.70;;
74375;SDS011;62812;55.188;61.302;2023-03-14T11:03:59;1.65;;;0.55;;
74375;SDS011;62812;55.188;61.302;2023-03-14T11:06:33;3.50;;;1.08;;
74375;SDS011;62812;55.188;61.302;2023-03-14T11:09:10;1.77;;;0.60;;
74375;SDS011;62812;55.188;61.302;2023-03-14T11:11:41;2.28;;;0.70;;
74375;SDS011;62812;55.188;61.302;2023-03-14T11:14:16;2.15;;;0.65;;
74375;SDS011;62812;55.188;61.302;2023-03-14T11:19:20;2.50;;;0.70;;
74375;SDS011;62812;55.188;61.302;2023-03-14T11:21:59;2.08;;;0.73;;
74375;SDS011;62812;55.188;61.302;2023-03-14T11:24:37;1.88;;;0.45;;
74375;SDS011;62812;55.188;61.302;2023-03-14T11:27:13;3.13;;;0.70;;
74375;SDS011;62812;55.188;61.302;2023-03-14T11:29:45;2.58;;;0.63;;
74375;SDS011;62812;55.188;61.302;2023-03-14T11:32:34;2.30;;;0.73;;
74375;SDS011;62812;55.188;61.302;2023-03-14T11:35:08;2.22;;;0.52;;
74375;SDS011;62812;55.188;61.302;2023-03-14T11:37:44;3.08;;;0.60;;
74375;SDS011;62812;55.188;61.302;2023-03-14T11:40:17;2.45;;;0.68;;
74375;SDS011;62812;55.188;61.302;2023-03-14T11:42:46;1.38;;;0.38;;
74375;SDS011;62812;55.188;61.302;2023-03-14T11:45:20;1.92;;;0.50;;
74375;SDS011;62812;55.188;61.302;2023-03-14T11:47:52;1.77;;;0.43;;
74375;SDS011;62812;55.188;61.302;2023-03-14T11:50:33;2.35;;;0.70;;
74375;SDS011;62812;55.188;61.302;2023-03-14T11:53:01;2.28;;;0.60;;
74375;SDS011;62812;55.188;61.302;2023-03-14T11:55:34;2.10;;;0.60;;
74375;SDS011;62812;55.188;61.302;2023-03-14T11:58:03;2.33;;;0.70;;
74375;SDS011;62812;55.188;61.302;2023-03-14T12:00:38;2.30;;;0.80;;
74375;SDS011;62812;55.188;61.302;2023-03-14T12:03:09;4.53;;;0.80;;
74375;SDS011;62812;55.188;61.302;2023-03-14T12:11:12;2.30;;;0.85;;
74375;SDS011;62812;55.188;61.302;2023-03-14T12:13:46;1.88;;;0.60;;
74375;SDS011;62812;55.188;61.302;2023-03-14T12:22:23;3.55;;;0.82;;
74375;SDS011;62812;55.188;61.302;2023-03-14T12:24:53;2.88;;;0.80;;
74375;SDS011;62812;55.188;61.302;2023-03-14T12:27:48;2.55;;;0.80;;
74375;SDS011;62812;55.188;61.302;2023-03-14T12:30:30;3.47;;;0.98;;
74375;SDS011;62812;55.188;61.302;2023-03-14T12:35:59;3.83;;;1.30;;
74375;SDS011;62812;55.188;61.302;2023-03-14T12:38:44;3.28;;;0.80;;
74375;SDS011;62812;55.188;61.302;2023-03-14T12:41:19;3.38;;;1.05;;
74375;SDS011;62812;55.188;61.302;2023-03-14T12:43:50;3.50;;;1.02;;
74375;SDS011;62812;55.188;61.302;2023-03-14T12:46:21;2.83;;;1.00;;
74375;SDS011;62812;55.188;61.302;2023-03-14T12:48:50;3.42;;;0.95;;
74375;SDS011;62812;55.188;61.302;2023-03-14T12:51:26;2.38;;;0.80;;
74375;SDS011;62812;55.188;61.302;2023-03-14T12:57:06;4.10;;;1.00;;
74375;SDS011;62812;55.188;61.302;2023-03-14T12:59:52;4.18;;;1.20;;
74375;SDS011;62812;55.188;61.302;2023-03-14T13:02:23;4.95;;;1.15;;
74375;SDS011;62812;55.188;61.302;2023-03-14T13:04:52;4.15;;;1.27;;
74375;SDS011;62812;55.188;61.302;2023-03-14T13:07:39;3.08;;;0.80;;
74375;SDS011;62812;55.188;61.302;2023-03-14T13:10:30;3.13;;;0.98;;
74375;SDS011;62812;55.188;61.302;2023-03-14T13:13:11;1.95;;;0.57;;
74375;SDS011;62812;55.188;61.302;2023-03-14T13:15:46;3.83;;;0.90;;
74375;SDS011;62812;55.188;61.302;2023-03-14T13:18:15;2.45;;;0.80;;
74375;SDS011;62812;55.188;61.302;2023-03-14T13:20:44;2.20;;;0.65;;
74375;SDS011;62812;55.188;61.302;2023-03-14T13:23:22;2.40;;;0.65;;
74375;SDS011;62812;55.188;61.302;2023-03-14T13:25:50;6.45;;;0.80;;
74375;SDS011;62812;55.188;61.302;2023-03-14T13:28:17;1.98;;;0.60;;
74375;SDS011;62812;55.188;61.302;2023-03-14T13:30:46;3.13;;;1.33;;
74375;SDS011;62812;55.188;61.302;2023-03-14T13:33:14;1.48;;;0.50;;
74375;SDS011;62812;55.188;61.302;2023-03-14T13:35:42;3.17;;;0.68;;
74375;SDS011;62812;55.188;61.302;2023-03-14T13:38:15;1.73;;;0.50;;
74375;SDS011;62812;55.188;61.302;2023-03-14T13:40:43;2.95;;;0.70;;
74375;SDS011;62812;55.188;61.302;2023-03-14T13:43:20;1.40;;;0.50;;
74375;SDS011;62812;55.188;61.302;2023-03-14T13:45:53;4.15;;;0.80;;
74375;SDS011;62812;55.188;61.302;2023-03-14T13:48:22;2.45;;;0.70;;
74375;SDS011;62812;55.188;61.302;2023-03-14T13:50:54;1.58;;;0.50;;
74375;SDS011;62812;55.188;61.302;2023-03-14T13:53:22;2.83;;;0.70;;
74375;SDS011;62812;55.188;61.302;2023-03-14T13:55:49;3.50;;;0.80;;
74375;SDS011;62812;55.188;61.302;2023-03-14T13:58:20;2.20;;;0.63;;
74375;SDS011;62812;55.188;61.302;2023-03-14T14:00:58;1.75;;;0.50;;
74375;SDS011;62812;55.188;61.302;2023-03-14T14:03:27;1.25;;;0.40;;
74375;SDS011;62812;55.188;61.302;2023-03-14T14:05:56;3.20;;;0.82;;
74375;SDS011;62812;55.188;61.302;2023-03-14T14:08:24;1.63;;;0.65;;
74375;SDS011;62812;55.188;61.302;2023-03-14T14:10:52;2.13;;;0.70;;
74375;SDS011;62812;55.188;61.302;2023-03-14T14:13:22;2.25;;;0.63;;
74375;SDS011;62812;55.188;61.302;2023-03-14T14:15:51;3.15;;;0.80;;
74375;SDS011;62812;55.188;61.302;2023-03-14T14:18:21;1.95;;;0.60;;
74375;SDS011;62812;55.188;61.302;2023-03-14T14:20:56;2.65;;;0.70;;
74375;SDS011;62812;55.188;61.302;2023-03-14T14:23:25;2.75;;;0.80;;
74375;SDS011;62812;55.188;61.302;2023-03-14T14:25:54;3.17;;;0.85;;
74375;SDS011;62812;55.188;61.302;2023-03-14T14:28:24;2.55;;;0.60;;
74375;SDS011;62812;55.188;61.302;2023-03-14T14:31:01;1.73;;;0.60;;
74375;SDS011;62812;55.188;61.302;2023-03-14T14:33:38;2.38;;;0.80;;
74375;SDS011;62812;55.188;61.302;2023-03-14T14:36:12;2.35;;;0.68;;
74375;SDS011;62812;55.188;61.302;2023-03-14T14:38:51;2.13;;;0.60;;
74375;SDS011;62812;55.188;61.302;2023-03-14T14:41:19;3.03;;;0.70;;
74375;SDS011;62812;55.188;61.302;2023-03-14T14:43:48;2.63;;;0.73;;
74375;SDS011;62812;55.188;61.302;2023-03-14T14:46:29;2.00;;;0.70;;
74375;SDS011;62812;55.188;61.302;2023-03-14T14:49:01;2.75;;;0.73;;
74375;SDS011;62812;55.188;61.302;2023-03-14T14:51:37;4.10;;;0.85;;
74375;SDS011;62812;55.188;61.302;2023-03-14T14:54:11;2.15;;;0.80;;
74375;SDS011;62812;55.188;61.302;2023-03-14T14:56:51;1.73;;;0.65;;
74375;SDS011;62812;55.188;61.302;2023-03-14T14:59:20;2.40;;;0.70;;
74375;SDS011;62812;55.188;61.302;2023-03-14T15:04:18;3.13;;;0.95;;
74375;SDS011;62812;55.188;61.302;2023-03-14T15:06:51;2.38;;;0.70;;
74375;SDS011;62812;55.188;61.302;2023-03-14T15:09:18;1.80;;;0.60;;
74375;SDS011;62812;55.188;61.302;2023-03-14T15:11:45;2.42;;;0.75;;
74375;SDS011;62812;55.188;61.302;2023-03-14T15:14:12;1.92;;;0.70;;
74375;SDS011;62812;55.188;61.302;2023-03-14T15:16:38;2.05;;;0.63;;